createdAt,value
2022-10-05T00:05:23.198Z,4.5
2022-10-05T00:20:33.515Z,4.2
2022-10-05T00:35:42.440Z,4.5
2022-10-05T00:50:52.245Z,4.3
2022-10-05T01:06:01.442Z,4.3
2022-10-05T01:21:10.870Z,4.4
2022-10-05T01:36:20.617Z,4.1
2022-10-05T01:51:30.119Z,4.3
2022-10-05T02:06:39.997Z,4.7
2022-10-05T02:22:11.555Z,4.9
2022-10-05T02:37:22.045Z,5.3
2022-10-05T02:52:31.631Z,5
2022-10-05T03:07:41.722Z,5
2022-10-05T03:22:51.276Z,5.9
2022-10-05T03:38:00.871Z,5.1
2022-10-05T03:53:10.350Z,5.4
2022-10-05T04:08:19.841Z,5.8
2022-10-05T04:23:29.763Z,5.3
2022-10-05T04:38:39.585Z,6.3
2022-10-05T04:53:49.459Z,5.8
2022-10-05T05:08:58.863Z,6.3
2022-10-05T05:24:08.602Z,5.8
2022-10-05T05:39:17.923Z,5.8
2022-10-05T05:54:27.638Z,6.6
2022-10-05T06:09:37.310Z,5.6
2022-10-05T06:24:47.450Z,6.1
2022-10-05T06:40:01.578Z,6.7
2022-10-05T06:55:14.550Z,7.3
2022-10-05T07:10:23.674Z,6.3
2022-10-05T07:25:33.075Z,6.7
2022-10-05T07:40:42.823Z,6
2022-10-05T07:55:52.403Z,6.7
2022-10-05T08:11:02.278Z,6.3
2022-10-05T08:26:11.984Z,6.9
2022-10-05T08:41:21.814Z,6.2
2022-10-05T08:56:31.710Z,5.8
2022-10-05T09:11:41.382Z,6.1
2022-10-05T09:26:51.269Z,5.6
2022-10-05T09:42:01.253Z,4.5
2022-10-05T09:57:10.444Z,4.2
2022-10-05T10:12:19.795Z,3.9
2022-10-05T10:27:29.557Z,4.2
2022-10-05T10:42:38.576Z,4.8
2022-10-05T10:57:48.945Z,4.5
2022-10-05T11:12:58.579Z,3.9
2022-10-05T11:28:09.243Z,3.6
2022-10-05T11:43:19.956Z,3.8
2022-10-05T11:58:31.851Z,2.9
2022-10-05T12:13:41.659Z,2.8
2022-10-05T12:28:51.570Z,2.8
2022-10-05T12:44:01.590Z,3.5
2022-10-05T12:59:11.588Z,3.1
2022-10-05T13:18:35.894Z,3
2022-10-05T13:33:47.826Z,2.8
2022-10-05T13:48:56.552Z,2.8
2022-10-05T14:04:05.079Z,2.1
2022-10-05T14:19:14.072Z,2.5
2022-10-05T14:34:23.871Z,2.6
2022-10-05T14:49:33.577Z,2.9
2022-10-05T15:04:43.086Z,2.2
2022-10-05T15:19:53.056Z,2.8
2022-10-05T15:35:02.524Z,3.3
2022-10-05T15:50:11.489Z,3.1
2022-10-05T16:05:21.562Z,2.8
2022-10-05T16:20:31.451Z,3.5
2022-10-05T16:35:41.191Z,2.5
2022-10-05T16:50:50.432Z,2.8
2022-10-05T17:06:01.465Z,3.5
2022-10-05T17:21:10.371Z,5.3
2022-10-05T17:36:19.510Z,5
2022-10-05T17:51:29.016Z,4
2022-10-05T18:06:38.604Z,3.9
2022-10-05T18:21:47.980Z,3.5
2022-10-05T18:36:58.158Z,3.6
2022-10-05T18:52:10.036Z,2.7
2022-10-05T19:07:19.936Z,2.7
2022-10-05T19:22:29.719Z,2.4
2022-10-05T19:37:39.842Z,2.4
2022-10-05T19:52:50.414Z,3.1
2022-10-05T20:07:59.670Z,2.7
2022-10-05T20:23:10.114Z,2.8
2022-10-05T20:38:19.902Z,2.5
2022-10-05T20:53:29.323Z,2.2
2022-10-05T21:08:38.878Z,2.1
2022-10-05T21:23:48.418Z,1.8
2022-10-05T21:38:57.692Z,2.3
2022-10-05T21:54:09.196Z,2.4
2022-10-05T22:09:18.527Z,2.3
2022-10-05T22:24:28.191Z,2.3
2022-10-05T22:39:37.765Z,2.3
2022-10-05T22:54:47.199Z,2.6
2022-10-05T23:09:56.724Z,2.4
2022-10-05T23:25:06.174Z,2.2
2022-10-05T23:40:16.006Z,2.1
2022-10-05T23:55:25.258Z,2.5
